Tiempo atmosférico en la estación meteorológica de Villarrodrigo, Jaén (872 m.)



Fecha
DESCASC
Temp. máxima en grados centígrados (hora)
DESCASC
Temp. mínima en grados centígrados (hora)
DESCASC
Temp. media en grados centígrados
DESCASC
Racha de viento máxima en m/sg (hora)
DESCASC
Velocidad máxima media en intervalos de 10 minutos(hora)
DESCASC
Precipitaciones diarias en mm
DESCASC
Precipitaciones de 00:00 a 06:00 en mm
DESCASC
Precipitaciones de 06:00 a 12:00 en mm
DESCASC
Precipitaciones de 12:00 a 18:00 en mm
DESCASC
Precipitaciones de 18:00 a 24:00 en mm
DESCASC
20-09-2018 30.1 (14:50) 18.5 (07:00) 24.3 -- (--) -- (--) 0 0 0 0 0
19-09-2018 31.1 (15:10) 17.5 (08:00) 24.3 -- (--) -- (--) 0 0 0 0 0
18-09-2018 28.1 (14:40) 16.8 (07:30) 22.4 -- (--) -- (--) 0 0 0 0 0
17-09-2018 27.6 (12:20) 18.3 (17:00) 22.9 -- (--) -- (--) 1.2 0 0 0.6 0.6
16-09-2018 30 (16:20) 15.7 (00:00) 22.8 -- (--) -- (--) 0 0 0 0 0
15-09-2018 22.4 (10:40) 17.1 (00:00) 19.8 -- (--) -- (--) 0 0 0 0 0
14-09-2018 29.3 (14:40) 19.3 (00:00) 24.3 -- (--) -- (--) 0 0 0 0 0
13-09-2018 31.5 (18:20) 18.6 (00:00) 25.1 -- (--) -- (--) 0 0 0 0 0
12-09-2018 30.1 (15:10) 17.4 (00:00) 23.8 -- (--) -- (--) 0 0 0 0 0
11-09-2018 24.9 (13:40) 16.2 (00:00) 20.6 -- (--) -- (--) 0 0 0 0 0
10-09-2018 25.5 (16:50) 13.5 (00:00) 19.5 -- (--) -- (--) 14.6 14.4 0.2 0 0
09-09-2018 24.1 (11:50) 14.2 (00:00) 19.2 -- (--) -- (--) 0 0 0 0 0
08-09-2018 21.8 (00:30) 14.8 (00:00) 18.3 -- (--) -- (--) 1 0 0.2 0 0.8
07-09-2018 30.1 (18:30) 17.2 (00:00) 23.7 -- (--) -- (--) 0 0 0 0 0
06-09-2018 28.6 (17:40) 14.5 (00:00) 21.6 -- (--) -- (--) 0 0 0 0 0
05-09-2018 27.8 (17:30) 15.2 (00:00) 21.5 -- (--) -- (--) 0 0 0 0 0
04-09-2018 30.3 (17:40) 16 (00:00) 23.1 -- (--) -- (--) 0 0 0 0 0
03-09-2018 32.1 (14:00) 21.1 (00:00) 26.6 -- (--) -- (--) 0 0 0 0 0
02-09-2018 35.6 (17:00) 22.4 (00:00) 29 -- (--) -- (--) 0 0 0 0 0
01-09-2018 36.3 (16:10) 21.3 (00:00) 28.8 -- (--) -- (--) 0 0 0 0 0
31-08-2018 34.3 (17:50) 20.2 (00:00) 27.3 -- (--) -- (--) 0 0 0 0 0
30-08-2018 31.1 (15:20) 19.9 (00:00) 25.5 -- (--) -- (--) 0 0 0 0 0
29-08-2018 33.3 (16:10) 19.4 (00:00) 26.3 -- (--) -- (--) 0 0 0 0 0
28-08-2018 35.8 (17:20) 22.8 (00:00) 29.3 -- (--) -- (--) 0 0 0 0 0
27-08-2018 38.1 (15:50) 21.7 (00:00) 29.9 -- (--) -- (--) 0 0 0 0 0
26-08-2018 34.3 (17:20) 20.9 (00:00) 27.6 -- (--) -- (--) 0 0 0 0 0
25-08-2018 34 (18:10) 20.4 (00:00) 27.2 -- (--) -- (--) 0 0 0 0 0
24-08-2018 33.9 (16:20) 18.5 (00:00) 26.2 -- (--) -- (--) 0 0 0 0 0
23-08-2018 34.5 (17:10) 18.6 (00:00) 26.6 -- (--) -- (--) 1.4 0 0 0 1.4

Gráficas

Temp. máximas Temp. mínimas Temp. medias Precipitaciones Rachas de viento máximas Velocidades máximas media en intervalos de 10 minutos

Datos horarios

Fecha y hora oficial Temperatura (ºC) Velocidad del viento (km/h) Dirección del viento Racha (km/h) Dirección de racha Precipitación (mm) Presión (hPa) Tendencia (hPa) Humedad (%)
2018-09-21 23:00:00 24.5 4 Sudeste 13 Sudeste 0 923.5 1.5 34
2018-09-21 22:00:00 25.9 9 Sudeste 17 Este 0 923.2 1.6 32
2018-09-21 21:00:00 25.7 9 Sudeste 17 Sudeste 0 922.5 1.1 33
2018-09-21 20:00:00 27.4 8 Este 20 Este 0 922 0.5 31
2018-09-21 19:00:00 28.4 12 Este 25 Este 0 921.6 -0.1 29
2018-09-21 18:00:00 29.9 10 Sudeste 22 Sudeste 0 921.4 -0.8 25
2018-09-21 17:00:00 28.8 12 Sudeste 22 Noroeste 0 921.5 -1.5 29
2018-09-21 16:00:00 32 10 Noroeste 23 Oeste 0 921.7 -1.9 21
2018-09-21 15:00:00 30.7 9 Noroeste 22 Noroeste 0 922.2 -1.6 26
2018-09-21 14:00:00 29.1 4 Norte 17 Oeste 0 923 -0.5 31
2018-09-21 13:00:00 27.9 8 Oeste 16 Oeste 0 923.6 0.4 39
2018-09-21 12:00:00 25.7 4 Sudeste 21 Oeste 0 923.8 0.7 41
2018-09-21 11:00:00 25.1 6 Noroeste 15 Oeste 0 923.5 0.9 45
2018-09-21 10:00:00 22.8 2 Nordeste 10 Nordeste 0 923.2 0.9 53
2018-09-21 09:00:00 19.6 0 Calma 11 Sur 0 923.1 1 64
2018-09-21 08:00:00 17.9 4 Sudeste 10 Sudeste 0 922.6 0.7 68
2018-09-21 07:00:00 18.9 7 Sudeste 13 Sudeste 0 922.3 0.5 62
2018-09-21 06:00:00 19.2 9 Sudeste 15 Sudeste 0 922.1 0.1 59
2018-09-21 05:00:00 20 9 Sudeste 16 Sudeste 0 921.9 -0.4 55
2018-09-21 04:00:00 20.3 7 Sudeste 13 Sudeste 0 921.8 -0.6 54
2018-09-21 03:00:00 20.9 7 Sudeste 13 Sudeste 0 922 -0.2 52
2018-09-21 02:00:00 20.8 6 Sudeste 14 Sudeste 0 922.3 0.2 50
2018-09-21 01:00:00 21.3 6 Sudeste 16 Sudoeste 0 922.4 0.3 45
2018-09-21 00:00:00 22.4 3 Este 14 Este 0 922.2 0.7 40
2018-09-20 23:00:00 23 5 Nordeste 17 Este 0 922.1 0.8 39
2018-09-20 22:00:00 23.5 6 Este 19 Sudeste 0 922.1 0.8 36
2018-09-20 21:00:00 24.6 10 Sudeste 20 Este 0 921.5 0.3 33
2018-09-20 20:00:00 25 6 Sudeste 20 Este 0 921.3 -0.4 35
2018-09-20 19:00:00 26.9 12 Este 25 Este 0 921.3 -0.6 30
2018-09-20 18:00:00 26.9 13 Este 24 Este 0 921.2 -1.2 30
2018-09-20 17:00:00 27.3 8 Sudeste 14 Este 0 921.7 -1.5 29
2018-09-20 16:00:00 27.9 3 Sudoeste 17 Este 0 921.9 -2 29
2018-09-20 15:00:00 30 5 Sudoeste 18 Sudoeste 0 922.4 -1.8 27
2018-09-20 14:00:00 27.8 6 Oeste 24 Oeste 0 923.2 -1.1 34
2018-09-20 13:00:00 27.5 7 Oeste 21 Oeste 0 923.9 -0.3 36
2018-09-20 12:00:00 26.2 5 Oeste 12 Oeste 0 924.2 0.2 40
2018-09-20 11:00:00 23.7 4 Oeste 9 Oeste 0 924.3 0.9 47
2018-09-20 10:00:00 21.6 0 Calma 15 Oeste 0 924.2 0.8 52
2018-09-20 09:00:00 19.4 3 Noroeste 14 Este 0 924 0.7 58
2018-09-20 08:00:00 18.8 6 Este 16 Sudeste 0 923.4 0 56
2018-09-20 07:00:00 18.5 4 Sudeste 14 Sudeste 0 923.4 -0.3 57
2018-09-20 06:00:00 19.1 8 Sudeste 12 Sudeste 0 923.3 -0.7 56
2018-09-20 05:00:00 19.2 2 Este 8 Sudeste 0 923.4 -0.9 58
2018-09-20 04:00:00 19.9 4 Este 13 Sudeste 0 923.7 -0.9 55
2018-09-20 03:00:00 21.7 5 Sudeste 15 Sur 0 924 -0.6 49
2018-09-20 02:00:00 22.1 9 Sudeste 21 Este 0 924.3 -0.2 47
2018-09-20 01:00:00 20.3 3 Este 11 Sudeste 0 924.6 0.5 53
2018-09-20 00:00:00 20.9 4 Sudeste 8 Sur 0 924.6 1.2 52
2018-09-19 23:00:00 22.6 5 Este 13 Este 0 924.5 1.4 46
2018-09-19 22:00:00 22.5 0 Calma 13 Este 0 924.1 1.3 46
2018-09-19 21:00:00 23 3 Este 17 Este 0 923.4 0.8 45
2018-09-19 20:00:00 24.1 6 Este 14 Sudeste 0 923.1 0.4 43
2018-09-19 19:00:00 24.4 10 Sudeste 32 Sur 0 922.8 0.1 42
2018-09-19 18:00:00 27.9 11 Sudeste 23 Sudeste 0 922.6 -0.4 31
2018-09-19 17:00:00 27 14 Este 33 Sudeste 0 922.7 -0.8 33
2018-09-19 16:00:00 28.2 11 Sudeste 24 Norte 0 922.7 -1.4 34
2018-09-19 15:00:00 30.9 10 Noroeste 27 Noroeste 0 923 -1.4 25
2018-09-19 14:00:00 30 10 Norte 24 Norte 0 923.5 -0.5 29
2018-09-19 13:00:00 27.8 4 Este 14 Oeste 0 924.1 0.6 36
2018-09-19 12:00:00 26.5 4 Noroeste 14 Oeste 0 924.4 1.4 42
2018-09-19 11:00:00 26 3 Noroeste 8 Noroeste 0 924 1.4 46
2018-09-19 10:00:00 23.5 2 Nordeste 12 Sudeste 0 923.5 1.3 54
2018-09-19 09:00:00 19.2 9 Sudeste 14 Sudeste 0 923 1.1 67
2018-09-19 08:00:00 17.6 6 Este 14 Sudeste 0 922.6 0.7 72
2018-09-19 07:00:00 17.9 4 Sudeste 9 Sudeste 0 922.2 0.4 70
2018-09-19 06:00:00 18.4 3 Este 14 Sudeste 0 921.9 -0.2 69
2018-09-19 05:00:00 18.6 0 Calma 13 Sudeste 0 921.9 -0.6 67
2018-09-19 04:00:00 19.5 7 Sudeste 13 Sudeste 0 921.8 -0.7 64
2018-09-19 03:00:00 19.7 2 Este 23 Este 0 922.1 -0.5 63
2018-09-19 02:00:00 20.9 13 Este 28 Este 0 922.5 0.6 59
2018-09-19 01:00:00 19.6 8 Este 14 Este 0 922.5 0.8 59
2018-09-19 00:00:00 19.9 4 Este 13 Sudeste 0 922.6 1.7 59
2018-09-18 23:00:00 20.7 8 Sudeste 16 Sudeste 0 921.9 1.5 56
2018-09-18 22:00:00 20.6 10 Sudeste 17 Sudeste 0 921.7 2.2 53
2018-09-18 21:00:00 22.2 7 Sudeste 14 Sudeste 0 920.9 1.4 46
2018-09-18 20:00:00 23.5 5 Sudeste 19 Sur 0 920.4 0.3 44
2018-09-18 19:00:00 24.9 9 Sur 18 Sur 0 919.5 -0.2 42
2018-09-18 18:00:00 26.2 5 Sur 17 Sudoeste 0 919.5 -0.5 39
2018-09-18 17:00:00 24.6 15 Sudoeste 26 Oeste 0 920.1 -0.2 42
2018-09-18 16:00:00 24.3 12 Sudoeste 23 Sudoeste 0 919.7 -1.1 51
2018-09-18 15:00:00 25.8 10 Sudoeste 21 Oeste 0 920 -1.2 43
2018-09-18 14:00:00 26.3 10 Sudoeste 18 Oeste 0 920.3 -0.7 42
2018-09-18 13:00:00 25.5 7 Sudoeste 21 Sur 0 920.8 0.4 43
2018-09-18 12:00:00 24.5 4 Sur 17 Oeste 0 921.2 1 50
2018-09-18 11:00:00 23.9 5 Oeste 11 Oeste 0 921 1.4 58
2018-09-18 10:00:00 21.3 4 Nordeste 10 Noroeste 0 920.4 1 65
2018-09-18 09:00:00 17.8 2 Este 14 Sudeste 0 920.2 0.8 79
2018-09-18 08:00:00 16.9 8 Sudeste 15 Sudeste 0 919.6 0.5 81
2018-09-18 07:00:00 17 6 Sudeste 10 Este 0 919.4 0.3 80
2018-09-18 06:00:00 17.3 5 Este 14 Sudeste 0 919.4 -0.2 77
2018-09-18 05:00:00 17.8 4 Sudeste 11 Sudeste 0 919.1 -0.4 76
2018-09-18 04:00:00 19 8 Sudeste 13 Sudeste 0 919.1 -0.9 71
2018-09-18 03:00:00 18.8 4 Sur 11 Sudeste 0 919.6 -0.5 75
2018-09-18 02:00:00 18.7 8 Sudeste 18 Sudeste 0 919.5 -0.4 76
2018-09-18 01:00:00 18.4 6 Este 10 Noroeste 0 920 0 78
2018-09-18 00:00:00 19 2 Sur 16 Sudeste 0 920.1 0.6 74
2018-09-17 23:00:00 20 8 Sudeste 21 Sudeste 0 919.9 0.6 68
2018-09-17 22:00:00 19.7 7 Sudeste 17 Sudeste 0 920 1 68
2018-09-17 21:00:00 20 12 Sudeste 30 Sudeste 0 919.5 0.5 63
2018-09-17 20:00:00 19.3 11 Sudeste 22 Sudeste 0.2 919.3 -0.9 67
2018-09-17 19:00:00 19 6 Sudeste 30 Sudeste 0.4 919 -0.8 76
2018-09-17 18:00:00 19.4 15 Sudeste 35 Sudeste 0.2 919 -1.2 72
2018-09-17 17:00:00 18.6 22 Sur 49 Sur 0.4 920.2 -0.8 83
2018-09-17 16:00:00 24.3 14 Sudeste 30 Sudeste 0 919.8 -1.4 54
2018-09-17 15:00:00 24.9 12 Este 26 Sudeste 0 920.2 -1 53
2018-09-17 14:00:00 22.1 18 Sudeste 41 Sudeste 0 921 -0.5 66
2018-09-17 13:00:00 25.2 16 Este 30 Sudeste 0 921.2 -0.3 50
2018-09-17 12:00:00 26.7 5 Noroeste 13 Noroeste 0 921.2 -0.3 42
2018-09-17 11:00:00 24.6 4 Oeste 12 Oeste 0 921.5 0.3 48
2018-09-17 10:00:00 22.9 5 Oeste 9 Oeste 0 921.5 0.4 54
2018-09-17 09:00:00 20.5 3 Oeste 11 Noroeste 0 921.5 0.2 60
2018-09-17 08:00:00 19.6 0 Calma 27 Sudeste 0 921.2 -0.3 62
2018-09-17 07:00:00 20.3 17 Sudeste 28 Sudeste 0 921.1 -0.7 60
2018-09-17 06:00:00 20.1 4 Este 21 Este 0 921.3 -0.8 63
2018-09-17 05:00:00 20.5 7 Este 25 Este 0 921.5 -0.8 61
2018-09-17 04:00:00 21.1 6 Este 27 Sudeste 0 921.8 -0.6 58
2018-09-17 03:00:00 21.4 3 Este 34 Sudeste 0 922.1 -0.5 55
2018-09-17 02:00:00 21.6 8 Este 30 Este 0 922.3 -0.4 57
2018-09-17 01:00:00 22.3 11 Este 28 Nordeste 0 922.4 -0.2 52
2018-09-17 00:00:00 22.5 14 Este 28 Sudeste 0 922.6 0.3 55
2018-09-16 23:00:00 22.8 13 Este 27 Este 0 922.7 0.8 53
2018-09-16 22:00:00 23.3 13 Sudeste 24 Este 0 922.6 1.2 48
2018-09-16 21:00:00 24 13 Este 26 Este 0 922.3 0.8 45
2018-09-16 20:00:00 25.2 9 Este 26 Sudeste 0 921.9 0.4 42
2018-09-16 19:00:00 27.2 13 Sudeste 24 Sudeste 0 921.4 -0.4 34
2018-09-16 18:00:00 27.8 13 Sudeste 31 Sudeste 0 921.5 -1.1 33
2018-09-16 17:00:00 27.9 7 Sudeste 17 Este 0 921.5 -1.8 31
2018-09-16 16:00:00 28.5 8 Sudeste 19 Oeste 0 921.8 -2 31
2018-09-16 15:00:00 28.3 5 Oeste 17 Noroeste 0 922.6 -1.5 33
2018-09-16 14:00:00 27.1 6 Oeste 16 Sudoeste 0 923.3 -1.1 37
2018-09-16 13:00:00 25 3 Sur 13 Noroeste 0 923.8 -0.5 46
2018-09-16 12:00:00 24.9 5 Noroeste 14 Oeste 0 924.1 0.1 49
2018-09-16 11:00:00 23.6 3 Oeste 12 Noroeste 0 924.4 0.9 54
2018-09-16 10:00:00 22 0 Calma 9 Este 0 924.3 1 60
2018-09-16 09:00:00 17.4 8 Sudeste 12 Sudeste 0 924 0.8 77
2018-09-16 08:00:00 16 6 Sudeste 16 Sudeste 0 923.5 0.2 81
2018-09-16 07:00:00 15.9 7 Sudeste 14 Este 0 923.3 -0.2 79
2018-09-16 06:00:00 16 6 Sudeste 10 Este 0 923.2 -0.4 79
2018-09-16 05:00:00 16.4 4 Sur 12 Sudeste 0 923.3 -0.3 76
2018-09-16 04:00:00 16.9 8 Sudeste 16 Sudeste 0 923.5 -0.1 73
2018-09-16 03:00:00 17.5 4 Sudeste 12 Este 0 923.6 -0.4 72
2018-09-16 02:00:00 18 3 Nordeste 12 Sudeste 0 923.6 0 69
2018-09-16 01:00:00 18.2 2 Este 15 Sudeste 0 923.6 0.3 69
2018-09-16 00:00:00 18.7 7 Sudeste 12 Sudeste 0 924 1.5 67
2018-09-15 23:00:00 19.9 3 Nordeste 18 Este 0 923.6 1.7 61
2018-09-15 22:00:00 20.3 10 Este 19 Este 0 923.3 1.5 61
2018-09-15 21:00:00 20.6 3 Oeste 29 Este 0 922.5 0.9 57
2018-09-15 20:00:00 20.6 13 Este 37 Sudeste 0 921.9 0.1 59
2018-09-15 19:00:00 21 23 Sudeste 44 Sudeste 0 921.8 -0.2 58
2018-09-15 18:00:00 21.7 21 Este 45 Este 0 921.6 -0.7 53
2018-09-15 17:00:00 21.2 25 Este 45 Este 0 921.8 -1 56
2018-09-15 16:00:00 20.6 18 Este 40 Este 0 922 -0.7 57
2018-09-15 15:00:00 20.6 15 Este 36 Este 0 922.3 -0.5 56
2018-09-15 14:00:00 20.2 11 Este 34 Sudeste 0 922.8 0.3 61
2018-09-15 13:00:00 20.8 13 Este 37 Este 0 922.7 0.8 59
2018-09-15 12:00:00 21.9 9 Este 33 Sudeste 0 922.8 1.2 56
2018-09-15 11:00:00 20.9 10 Este 35 Sudeste 0 922.5 1.1 57
2018-09-15 10:00:00 21.8 8 Este 23 Este 0 921.9 0.6 55
2018-09-15 09:00:00 18.8 5 Oeste 22 Oeste 0 921.6 0.5 66
2018-09-15 08:00:00 17.2 4 Oeste 13 Norte 0 921.4 0.6 71
2018-09-15 07:00:00 17.8 5 Norte 21 Oeste 0 921.3 0.1 68
2018-09-15 06:00:00 18.2 3 Sur 14 Oeste 0 921.1 -0.6 66
2018-09-15 05:00:00 18.9 7 Sudoeste 19 Sudoeste 0 920.8 -0.9 63
2018-09-15 04:00:00 19.4 4 Norte 29 Sudeste 0 921.2 -0.4 61
2018-09-15 03:00:00 20.7 6 Sudeste 14 Sudeste 0 921.7 -0.2 54
2018-09-15 02:00:00 20.3 0 Calma 9 Este 0 921.7 0.1 53
2018-09-15 01:00:00 21 2 Sur 8 Sur 0 921.6 0.4 50
2018-09-15 00:00:00 20.7 4 Noroeste 8 Noroeste 0 921.9 1.4 52
2018-09-14 23:00:00 21.3 4 Sudeste 12 Sudeste 0 921.6 1.3 52
2018-09-14 22:00:00 22.3 3 Sudeste 16 Este 0 921.2 0.8 49
2018-09-14 21:00:00 23.4 9 Este 32 Sudeste 0 920.5 0.2 45
2018-09-14 20:00:00 24.7 9 Sudeste 26 Sudeste 0 920.3 0.2 41
2018-09-14 19:00:00 26.5 10 Sudeste 31 Este 0 920.4 -0.2 33
2018-09-14 18:00:00 27.3 15 Sudeste 27 Sudeste 0 920.3 -0.8 31
2018-09-14 17:00:00 26.9 15 Sudeste 33 Sudeste 0 920.1 -1.7 33
2018-09-14 16:00:00 28.1 13 Este -- -- 0 920.6 -1.6 32
2018-09-14 15:00:00 28.4 19 Sudeste 35 Sudeste 0 921.1 -1.3 27
2018-09-14 14:00:00 28.2 13 Sudeste 28 Este 0 921.8 -0.5 30
2018-09-14 13:00:00 26.6 5 Noroeste 12 Noroeste 0 922.2 0.1 46
2018-09-14 12:00:00 25.1 0 Calma 15 Sur 0 922.4 0.4 50
2018-09-14 11:00:00 24.2 3 Noroeste 12 Sudeste 0 922.3 0.7 53
2018-09-14 10:00:00 22.5 3 Noroeste 5 Noroeste 0 922.1 0.6 61
2018-09-14 09:00:00 20.6 2 Sudeste 9 Sudeste 0 922 0.6 68
2018-09-14 08:00:00 19.4 5 Sudeste 17 Sudeste 0 921.6 0.1 71
2018-09-14 07:00:00 19.5 8 Sudeste 14 Sudeste 0 921.5 -0.4 71
2018-09-14 06:00:00 19.9 7 Sudeste 13 Sudeste 0 921.4 -0.8 69
2018-09-14 05:00:00 20.1 7 Sudeste 15 Sudeste 0 921.5 -0.7 66
2018-09-14 04:00:00 20.6 6 Sudeste 11 Sudeste 0 921.9 0.2 61
2018-09-14 03:00:00 20.7 3 Sudeste 10 Sudeste 0 922.2 0.6 57
2018-09-14 02:00:00 20.9 6 Sudeste 14 Oeste 0 922.2 0.7 50
2018-09-14 01:00:00 22.1 3 Sur 11 Sudeste 0 921.7 0.2 43
2018-09-14 00:00:00 22.1 10 Sudeste 14 Sudeste 0 921.6 0.7 42
2018-09-13 23:00:00 22.9 6 Sudeste 13 Sudeste 0 921.5 0.7 42
2018-09-13 22:00:00 23.8 3 Oeste 13 Sudeste 0 921.5 0.7 40
2018-09-13 21:00:00 25.2 8 Sudeste 19 Este 0 920.9 0.2 36
2018-09-13 20:00:00 27.2 12 Este 19 Este 0 920.8 -0.3 32
2018-09-13 19:00:00 28.9 12 Este 22 Este 0 920.8 -0.9 28
2018-09-13 18:00:00 31 5 Noroeste 17 Norte 0 920.7 -1.6 22
2018-09-13 17:00:00 31 4 Nordeste 19 Norte 0 921.1 -1.7 22
2018-09-13 16:00:00 30.2 8 Noroeste 22 Noroeste 0 921.7 -1.8 23
2018-09-13 15:00:00 28.2 4 Sudeste 19 Sudeste 0 922.3 -1.5 28
2018-09-13 14:00:00 28.6 10 Este 19 Este 0 922.8 -1.1 30
2018-09-13 13:00:00 26.5 10 Sudeste 16 Este 0 923.5 -0.3 42
2018-09-13 12:00:00 27.6 7 Noroeste 14 Oeste 0 923.8 0.2 40
2018-09-13 11:00:00 24.9 4 Oeste 10 Oeste 0 923.9 0.5 49
2018-09-13 10:00:00 23.4 2 Noroeste 5 Oeste 0 923.8 0.5 56
2018-09-13 09:00:00 20.5 0 Calma 12 Sudeste 0 923.6 0.4 65
2018-09-13 08:00:00 18.8 4 Sur 14 Sudeste 0 923.4 0.1 70
2018-09-13 07:00:00 19.2 4 Sur 14 Sur 0 923.3 -0.2 65
2018-09-13 06:00:00 19.5 6 Sudeste 13 Sudeste 0 923.2 -0.2 64
2018-09-13 05:00:00 19.9 5 Sudeste 14 Sur 0 923.3 -0.5 62
2018-09-13 04:00:00 20.1 5 Sudeste 14 Sudeste 0 923.5 -0.9 61
2018-09-13 03:00:00 20.3 4 Sudeste 16 Sudeste 0 923.4 -1.3 61
2018-09-13 02:00:00 20 9 Sudeste 15 Sudeste 0 923.8 -0.8 63
2018-09-13 01:00:00 20.7 8 Sudeste 14 Sudeste 0 924.4 0.2 60
2018-09-13 00:00:00 21.3 8 Sudeste 15 Sudeste 0 924.7 1.1 57
2018-09-12 23:00:00 21.9 7 Sudeste 14 Sudeste 0 924.6 1.2 55
2018-09-12 22:00:00 22.4 9 Sudeste 17 Sudeste 0 924.2 0.8 54
2018-09-12 21:00:00 23.1 7 Sudeste 12 Sudeste 0 923.6 0.4 50
2018-09-12 20:00:00 25.2 5 Sur 18 Sur 0 923.4 -0.1 44
2018-09-12 19:00:00 26.4 8 Sur 17 Sur 0 923.4 -0.4 38
2018-09-12 18:00:00 27.9 7 Sudoeste 32 Sudoeste 0 923.2 -1.1 33
2018-09-12 17:00:00 28.4 14 Oeste 32 Sudoeste 0 923.5 -1.4 32
2018-09-12 16:00:00 29.2 8 Sudoeste 26 Oeste 0 923.8 -1.8 30
2018-09-12 15:00:00 29.3 9 Oeste 18 Oeste 0 924.3 -1.7 29
2018-09-12 14:00:00 28.3 7 Sudoeste 25 Oeste 0 924.9 -0.9 33
2018-09-12 13:00:00 26.4 6 Oeste 15 Oeste 0 925.6 0.2 41
2018-09-12 12:00:00 26.4 7 Noroeste 15 Noroeste 0 926 0.7 44
2018-09-12 11:00:00 22.3 0 Calma 4 Este 0 925.8 1.1 58
2018-09-12 10:00:00 21 3 Noroeste 7 Noroeste 0 925.4 1 64
2018-09-12 09:00:00 19.3 2 Sur 15 Oeste 0 925.3 1 69
2018-09-12 08:00:00 17.7 9 Sudeste 13 Sudeste 0 924.7 0.5 72
2018-09-12 07:00:00 18.4 3 Este 8 Sudeste 0 924.4 0.2 70
2018-09-12 06:00:00 19.1 3 Nordeste 12 Este 0 924.3 -0.1 67
2018-09-12 05:00:00 19.5 2 Este 28 Sudeste 0 924.2 -0.6 67
2018-09-12 04:00:00 20 17 Sudeste 32 Sudeste 0 924.2 -0.6 67
2018-09-12 03:00:00 20.3 13 Sudeste 39 Sudeste 0 924.4 -0.4 66
2018-09-12 02:00:00 20.4 17 Sudeste 32 Este 0 924.8 0.3 66
2018-09-12 01:00:00 20.3 6 Este 21 Este 0 924.8 0.8 66
2018-09-12 00:00:00 20.9 10 Sudeste 35 Sudeste 0 924.8 1.3 63
2018-09-11 23:00:00 20.9 16 Sudeste 32 Sudeste 0 924.5 1.1 64
2018-09-11 22:00:00 21 16 Sudeste 37 Este 0 924 0.9 64
2018-09-11 21:00:00 21.5 18 Sudeste 40 Sudeste 0 923.5 0.5 62
2018-09-11 20:00:00 22.4 21 Sudeste 42 Sudeste 0 923.4 -0.4 59
2018-09-11 19:00:00 23.7 17 Sudeste 38 Sudeste 0 923.1 -1.2 55
2018-09-11 18:00:00 24.1 20 Sudeste 41 Este 0 923 -1.9 53
2018-09-11 17:00:00 24.4 18 Este 42 Sudeste 0 923.8 -1.4 52
2018-09-11 16:00:00 23.5 19 Este 39 Este 0 924.3 -1 55
2018-09-11 15:00:00 24 17 Este 35 Este 0 924.9 -0.3 54
2018-09-11 14:00:00 24.5 14 Este 36 Sudeste 0 925.2 0.4 49
2018-09-11 13:00:00 24 13 Este 35 Este 0 925.3 0.8 48
2018-09-11 12:00:00 23.3 12 Este 31 Sudeste 0 925.2 0.6 51
2018-09-11 11:00:00 21.8 14 Sudeste 36 Sudeste 0 924.8 0.5 53
2018-09-11 10:00:00 21.1 10 Este 25 Sudeste 0 924.5 0.3 55
2018-09-11 09:00:00 19.1 4 Noroeste 22 Este 0 924.6 0.4 62
2018-09-11 08:00:00 16.3 3 Este 12 Oeste 0 924.3 0.1 72
2018-09-11 07:00:00 16.8 2 Sur 19 Noroeste 0 924.2 -0.1 70
2018-09-11 06:00:00 16.5 4 Nordeste 14 Este 0 924.2 -0.1 74
2018-09-11 05:00:00 17.9 13 Sudeste 23 Sudeste 0 924.2 -0.2 67
2018-09-11 04:00:00 17.8 6 Este 19 Sudeste 0 924.3 -0.3 67
2018-09-11 03:00:00 18.7 10 Sudeste 28 Sudeste 0 924.3 -0.4 64
2018-09-11 02:00:00 18.7 14 Sudeste 40 Este 0 924.4 -0.3 65
2018-09-11 01:00:00 18.9 16 Sudeste 39 Este 0 924.6 0.3 67
2018-09-11 00:00:00 19.6 22 Sudeste 51 Este 0 924.7 1.2 65
2018-09-10 23:00:00 20.2 20 Sudeste 52 Este 0 924.7 1.4 65
2018-09-10 22:00:00 21 27 Este 51 Este 0 924.3 0.9 61
2018-09-10 21:00:00 21.8 21 Este 41 Este 0 923.5 0.5 56
2018-09-10 20:00:00 23 19 Sudeste -- -- 0 923.3 0.1 51
2018-09-10 19:00:00 24.1 11 Este 59 Este 0 923.4 -0.1 45
2018-09-10 18:00:00 24.5 14 Este 29 Este 0 923 -0.9 41
2018-09-10 17:00:00 25 10 Este 32 Este 0 923.2 -0.8 38
2018-09-10 16:00:00 24.4 14 Este 34 Este 0 923.5 -1.1 42
2018-09-10 15:00:00 23.5 16 Este 34 Este 0 923.9 -1.3 45
2018-09-10 14:00:00 21.7 19 Este 37 Este 0 924 -1.1 52
2018-09-10 13:00:00 22.2 10 Sudeste 38 Este 0 924.6 0.1 53
2018-09-10 12:00:00 21.1 13 Este 26 Este 0 925.2 0.9 56
2018-09-10 11:00:00 21.1 10 Norte 19 Norte 0 925.1 1.5 64
2018-09-10 10:00:00 19.1 3 Oeste 11 Norte 0 924.5 1.2 66
2018-09-10 09:00:00 15.6 3 Sudeste 12 Noroeste 0 924.3 1.8 80
2018-09-10 08:00:00 13.8 4 Este 14 Este 0 923.6 1.1 83
2018-09-10 07:00:00 13.7 2 Nordeste 9 Sudeste 0.2 923.3 0.9 86
2018-09-10 06:00:00 14.3 3 Sur 21 Sudeste 1.2 922.5 -2.2 83
2018-09-10 05:00:00 15 11 Sudeste -- -- 2.6 922.5 -2.8 79
2018-09-10 04:00:00 16.3 31 Este 54 Este 3.4 922.4 -2 70
2018-09-10 03:00:00 14.8 9 Norte 17 Norte 3.6 924.7 0.9 88
2018-09-10 02:00:00 15.5 2 Este 28 Este 2.2 925.3 2.8 82
2018-09-10 01:00:00 16.5 13 Este 37 Norte 1.4 924.4 2.1 69
2018-09-10 00:00:00 18.5 13 Oeste 27 Oeste 0 923.8 2 68
2018-09-09 23:00:00 19.5 5 Sur 10 Sudeste 0 922.5 1.3 63
2018-09-09 22:00:00 20 5 Este 14 Este 0 922.3 1.5 60
2018-09-09 21:00:00 20.4 5 Este 15 Nordeste 0 921.8 1.4 60
2018-09-09 20:00:00 21.4 5 Este 19 Este 0 921.2 0.3 54
2018-09-09 19:00:00 21.9 13 Sudeste 34 Sudeste 0 920.8 -0.3 52
2018-09-09 18:00:00 22.8 8 Sudeste 26 Sudeste 0 920.4 -1.2 50
2018-09-09 17:00:00 22.9 12 Este 23 Sudeste 0 920.9 -1.2 50
2018-09-09 16:00:00 23.3 11 Este 27 Sudeste 0 921.1 -1.2 47
2018-09-09 15:00:00 23.7 12 Sudeste 26 Sudeste 0 921.6 -1 46
2018-09-09 14:00:00 23 12 Sudeste 28 Este 0 922.1 -0.4 47
2018-09-09 13:00:00 23.4 9 Sudeste 29 Este 0 922.3 0.4 43
2018-09-09 12:00:00 24.1 5 Sudoeste 15 Sudoeste 0 922.6 1.1 40
2018-09-09 11:00:00 21.5 8 Oeste 13 Oeste 0 922.5 1.3 49
2018-09-09 10:00:00 21.6 4 Norte 9 Noroeste 0 921.9 0.8 48
2018-09-09 09:00:00 16 3 Sudeste 15 Oeste 0 921.5 0.1 67
2018-09-09 08:00:00 14.6 9 Sudeste 15 Sudeste 0 921.2 -0.5 68
2018-09-09 07:00:00 15.1 7 Sudeste 17 Sudeste 0 921.1 -0.9 67
2018-09-09 06:00:00 15.4 10 Sudeste 15 Sudeste 0 921.4 -0.5 67
2018-09-09 05:00:00 15.4 6 Sudeste 15 Sudeste 0 921.7 -0.5 68
2018-09-09 04:00:00 14.9 3 Sudeste 15 Sudeste 0 922 -0.1 70
2018-09-09 03:00:00 15.1 8 Sudeste 15 Sudeste 0 921.9 0.4 71
2018-09-09 02:00:00 14.9 6 Sudeste 15 Este 0 922.2 0.7 73
2018-09-09 01:00:00 14.7 9 Sudeste 14 Este 0 922.1 1.1 75
2018-09-09 00:00:00 14.8 7 Sudeste 13 Este 0 921.5 0.9 75
2018-09-08 23:00:00 16.3 4 Oeste 22 Noroeste 0 921.5 0.9 74
2018-09-08 22:00:00 18.1 10 Oeste 32 Sur 0 921 -0.3 64
2018-09-08 21:00:00 17.8 6 Este 39 Sudeste 0 920.6 -0.8 62
2018-09-08 20:00:00 17.1 10 Sudeste 35 Sudeste 0.2 920.6 -0.2 68
2018-09-08 19:00:00 16.5 21 Sudeste 31 Sudeste 0.6 921.3 0.5 77
2018-09-08 18:00:00 17.4 9 Este 19 Sudeste 0 921.4 1.2 75
2018-09-08 17:00:00 19.1 3 Sur 35 Sudeste 0 920.8 1.1 59
2018-09-08 16:00:00 19.4 11 Sur 45 Sudeste 0 920.8 0.6 58
2018-09-08 15:00:00 20.7 32 Sudeste 69 Este 0 920.2 -0.5 45
2018-09-08 14:00:00 21 39 Sudeste 68 Sudeste 0 919.7 0.2 41
2018-09-08 13:00:00 21.1 26 Sudeste 58 Sudeste 0 920.2 1 40
2018-09-08 12:00:00 20.4 31 Sudeste 64 Sudeste 0 920.7 0.1 42
2018-09-08 11:00:00 20.4 26 Sudeste 57 Sudeste 0 919.5 0.5 44
2018-09-08 10:00:00 18.1 30 Sudeste 58 Sudeste 0.2 919.2 1 59
2018-09-08 09:00:00 18.1 21 Sudeste 39 Sur 0 920.6 2.6 63
2018-09-08 08:00:00 19.5 5 Noroeste 15 Oeste 0 919 0.4 46
2018-09-08 07:00:00 19.7 3 Sudoeste 18 Este 0 918.2 -0.2 45
2018-09-08 06:00:00 20.1 7 Este 25 Este 0 918 -0.1 46
2018-09-08 05:00:00 20 10 Este 26 Este 0 918.6 0 52
2018-09-08 04:00:00 20 4 Oeste 14 Nordeste 0 918.4 -0.8 51
2018-09-08 03:00:00 20.7 4 Nordeste 32 Este 0 918.1 -0.7 50
2018-09-08 02:00:00 20.7 12 Este 24 Este 0 918.6 0.5 53
2018-09-08 01:00:00 21.5 18 Sudeste 40 Sudeste 0 919.2 1.4 51
2018-09-08 00:00:00 21.5 22 Sudeste 45 Sudeste 0 918.8 1.8 53
2018-09-07 23:00:00 22 24 Sudeste 53 Sudeste 0 918.1 1.6 52
2018-09-07 22:00:00 22.8 24 Sudeste 44 Este 0 917.8 1.5 51
2018-09-07 21:00:00 23.9 19 Sudeste 40 Este 0 917 0.8 44
2018-09-07 20:00:00 25.5 20 Este 39 Sudeste 0 916.5 0.1 37
2018-09-07 19:00:00 27.8 12 Este 34 Sudeste 0 916.3 -0.3 29
2018-09-07 18:00:00 28.6 10 Este 21 Sudeste 0 916.2 -0.9 24
2018-09-07 17:00:00 27.3 10 Sudeste 27 Este 0 916.4 -1.1 26
2018-09-07 16:00:00 28.7 12 Sudeste 28 Este 0 916.6 -1.5 24
2018-09-07 15:00:00 27.9 9 Sudeste 27 Este 0 917.1 -1.3 27
2018-09-07 14:00:00 27.2 5 Nordeste 27 Sudeste 0 917.5 -0.7 29
2018-09-07 13:00:00 25.4 13 Sudeste 35 Sudeste 0 918.1 0 33
2018-09-07 12:00:00 24.1 18 Sudeste 51 Sudeste 0 918.4 0.4 39
2018-09-07 11:00:00 22.7 19 Este 37 Sudeste 0 918.2 0.5 42
2018-09-07 10:00:00 21.9 13 Sudeste 26 Sudeste 0 918.1 0.7 49
2018-09-07 09:00:00 18.8 0 Calma 10 Sudeste 0 918 0.5 50
2018-09-07 08:00:00 17.4 3 Sudeste 13 Este 0 917.7 0.3 51
2018-09-07 07:00:00 17.7 6 Sudeste 9 Este 0 917.4 -0.3 49
2018-09-07 06:00:00 18.4 5 Este 17 Sudeste 0 917.5 -0.3 48
2018-09-07 05:00:00 19.3 2 Sudeste 7 Sur 0 917.4 -0.6 43
2018-09-07 04:00:00 20.4 0 Calma 10 Sudeste 0 917.7 -0.6 39
2018-09-07 03:00:00 20.8 6 Sudeste 17 Sudeste 0 917.8 -0.7 39
2018-09-07 02:00:00 20.9 6 Sudeste 15 Sudeste 0 918 -0.3 39
2018-09-07 01:00:00 21 9 Sudeste 13 Sudeste 0 918.3 0.5 41
2018-09-07 00:00:00 21.2 8 Sudeste 14 Sudeste 0 918.5 1.3 36
2018-09-06 23:00:00 21.2 9 Sudeste 16 Sudeste 0 918.3 1.6 37
2018-09-06 22:00:00 21.5 7 Sudeste 15 Sudeste 0 917.8 1.1 37
2018-09-06 21:00:00 23.1 6 Sudeste 15 Oeste 0 917.2 0.6 33
2018-09-06 20:00:00 25.6 6 Oeste 60 Sudoeste 0 916.7 -0.2 28
2018-09-06 19:00:00 27.5 6 Sudoeste -- -- 0 916.7 -0.4 24
2018-09-06 18:00:00 28.2 7 Noroeste 22 Noroeste 0 916.6 -1.1 22
2018-09-06 17:00:00 27.2 9 Noroeste 22 Oeste 0 916.9 -1.1 25
2018-09-06 16:00:00 28.2 9 Noroeste 29 Oeste 0 917.1 -1.2 22
2018-09-06 15:00:00 26.4 6 Oeste 19 Oeste 0 917.7 -1 27
2018-09-06 14:00:00 25.1 5 Sudeste 18 Oeste 0 918 -0.8 30
2018-09-06 13:00:00 24.9 5 Oeste 19 Noroeste 0 918.3 -0.5 35
2018-09-06 12:00:00 23.8 5 Nordeste 15 Oeste 0 918.7 -0.1 40
2018-09-06 11:00:00 21.9 4 Noroeste 10 Oeste 0 918.8 0.6 50
2018-09-06 10:00:00 19.7 3 Noroeste 6 Noroeste 0 918.8 0.9 59
2018-09-06 09:00:00 16.2 2 Sudeste 12 Sur 0 918.8 1 71
2018-09-06 08:00:00 14.5 7 Sudeste 11 Sudeste 0 918.2 0.3 75
2018-09-06 07:00:00 15.2 6 Sudeste 10 Sudeste 0 917.9 -0.1 70
2018-09-06 06:00:00 15.7 6 Sudeste 12 Sudeste 0 917.8 -0.7 67
2018-09-06 05:00:00 16.7 7 Sudeste 11 Sudeste 0 917.9 -0.9 62
2018-09-06 04:00:00 18 5 Sudeste 13 Sudeste 0 918 -1 57
2018-09-06 03:00:00 17.8 9 Sudeste 15 Sudeste 0 918.5 -0.3 57
2018-09-06 02:00:00 18.2 10 Sudeste 21 Sur 0 918.8 0.1 55
2018-09-06 01:00:00 19.5 3 Sudoeste 18 Sudoeste 0 919 0.7 51
2018-09-06 00:00:00 20.2 9 Sudoeste 28 Sudoeste 0 918.8 1.3 47
2018-09-05 23:00:00 21.1 10 Sudoeste 26 Sudoeste 0 918.7 1.6 45
2018-09-05 22:00:00 21.7 8 Sudoeste 28 Sudoeste 0 918.3 1.3 39
2018-09-05 21:00:00 22.8 8 Sudoeste 27 Sudoeste 0 917.5 0.2 34
2018-09-05 20:00:00 25 14 Oeste 30 Oeste 0 917.1 -0.5 27
2018-09-05 19:00:00 26.6 15 Oeste 34 Oeste 0 917 -0.9 23
2018-09-05 18:00:00 27 19 Oeste 39 Oeste 0 917.3 -1.1 21
2018-09-05 17:00:00 26.9 16 Sudoeste 37 Oeste 0 917.6 -1.3 25
2018-09-05 16:00:00 27.1 15 Oeste 32 Oeste 0 917.9 -1.4 26
2018-09-05 15:00:00 26.2 12 Sudoeste 33 Oeste 0 918.4 -1.2 27
2018-09-05 14:00:00 25.6 10 Sudoeste 27 Oeste 0 918.9 -0.9 34
2018-09-05 13:00:00 24.9 10 Oeste 23 Oeste 0 919.3 -0.2 44
2018-09-05 12:00:00 22.8 6 Oeste 15 Oeste 0 919.6 0.3 50
2018-09-05 11:00:00 21.1 9 Oeste 18 Oeste 0 919.8 0.8 57
2018-09-05 10:00:00 20.2 3 Noroeste 9 Noroeste 0 919.5 0.7 57
2018-09-05 09:00:00 17.5 3 Sudoeste 10 Sudeste 0 919.3 1 64
2018-09-05 08:00:00 15.4 3 Sudeste 12 Este 0 919 0.9 70
2018-09-05 07:00:00 15.7 5 Sudeste 9 Sudeste 0 918.8 0.7 68
2018-09-05 06:00:00 16.7 4 Sudeste 12 Este 0 918.3 0.1 63
2018-09-05 05:00:00 17.1 8 Sudeste 12 Este 0 918.1 -0.2 62
2018-09-05 04:00:00 18.3 2 Este 11 Sudeste 0 918.1 -0.2 58
2018-09-05 03:00:00 18.8 6 Sudeste 11 Sudeste 0 918.2 0.1 55
2018-09-05 02:00:00 19.5 5 Sudeste 10 Sudeste 0 918.3 0.5 50
2018-09-05 01:00:00 20.5 5 Sudeste 13 Sudeste 0 918.3 1 45
2018-09-05 00:00:00 21 8 Sudeste 13 Sudeste 0 918.1 1.8 40
2018-09-04 23:00:00 22.1 4 Sur 13 Sudeste 0 917.8 2 37
2018-09-04 22:00:00 23.1 6 Sudeste 14 Sur 0 917.3 1.5 32
2018-09-04 21:00:00 24.9 6 Sudoeste 59 Sudoeste 0 916.3 0.7 26
2018-09-04 20:00:00 26.9 14 Sudoeste 30 Oeste 0 915.8 -0.1 24
2018-09-04 19:00:00 28.6 13 Sudoeste 34 Sudoeste 0 915.8 -0.4 20
2018-09-04 18:00:00 30 11 Oeste 42 Sudoeste 0 915.6 -0.9 15
2018-09-04 17:00:00 29.7 17 Sudoeste 39 Oeste 0 915.9 -0.9 11
2018-09-04 16:00:00 29 18 Oeste 33 Oeste 0 916.2 -0.9 16
2018-09-04 15:00:00 28.1 17 Oeste 31 Sudoeste 0 916.5 -1 23
2018-09-04 14:00:00 27.6 16 Sudoeste 34 Oeste 0 916.8 -0.9 22
2018-09-04 13:00:00 26.3 15 Oeste 27 Sudoeste 0 917.1 -0.3 30
2018-09-04 12:00:00 25.2 5 Noroeste 13 Noroeste 0 917.5 0.2 45
2018-09-04 11:00:00 22.3 5 Oeste 10 Oeste 0 917.7 0.6 54
2018-09-04 10:00:00 20.7 4 Oeste 9 Oeste 0 917.4 0.6 58
2018-09-04 09:00:00 18.3 3 Sudeste 12 Sur 0 917.3 0.4 69
2018-09-04 08:00:00 16.2 0 Calma 13 Sudeste 0 917.1 0.3 75
2018-09-04 07:00:00 16.2 6 Sudeste 12 Sudeste 0 916.8 -0.1 74
2018-09-04 06:00:00 16.9 7 Sudeste 12 Sudeste 0 916.9 -0.2 71
2018-09-04 05:00:00 17.7 2 Sudoeste 8 Sudeste 0 916.8 -0.7 68
2018-09-04 04:00:00 18.5 2 Nordeste 10 Sur 0 916.9 -0.6 64
2018-09-04 03:00:00 19.3 4 Sudeste 8 Sudeste 0 917.1 -0.3 61
2018-09-04 02:00:00 20.8 2 Norte 7 Sudoeste 0 917.5 0.5 56
2018-09-04 01:00:00 22.4 3 Sudeste 12 Sur 0 917.5 1.1 50
2018-09-04 00:00:00 23.3 3 Sur 10 Sudeste 0 917.4 2 48
2018-09-03 23:00:00 24.2 5 Sudeste 25 Sudeste 0 917 1.7 46
2018-09-03 22:00:00 24.9 13 Sudeste 32 Sudeste 0 916.4 1.1 43
2018-09-03 21:00:00 25.4 20 Sudeste 36 Sudeste 0 915.4 0.4 40
2018-09-03 20:00:00 26.1 21 Sudeste 48 Sudeste 0 915.3 -0.5 36
2018-09-03 19:00:00 27.9 28 Sudeste 46 Sudeste 0 915.3 -0.6 31
2018-09-03 18:00:00 30 13 Sudeste 30 Sudeste 0 915 -1.1 23
2018-09-03 17:00:00 29.5 7 Sur 24 Oeste 0 915.8 -0.7 24
2018-09-03 16:00:00 30.2 18 Oeste 32 Sudoeste 0 915.9 -1.6 23
2018-09-03 15:00:00 31.3 15 Oeste -- -- 0 916.1 -1.8 21
2018-09-03 14:00:00 32 6 Sudoeste 16 Sudoeste 0 916.5 -1.9 23
2018-09-03 13:00:00 29.4 6 Oeste 15 Sur 0 917.5 -0.8 31
2018-09-03 12:00:00 28.2 5 Oeste 19 Oeste 0 917.9 -0.6 37
2018-09-03 11:00:00 26.5 5 Oeste 12 Oeste 0 918.4 -0.2 44
2018-09-03 10:00:00 22.4 2 Oeste 11 Noroeste 0 918.3 0.3 59
2018-09-03 09:00:00 22.1 6 Norte 13 Sudeste 0 918.5 1.4 59
2018-09-03 08:00:00 21.3 8 Sudoeste 19 Oeste 0 918.6 1.6 60
2018-09-03 07:00:00 22 3 Sudeste 13 Sudoeste 0 918 0.7 51
2018-09-03 06:00:00 23.4 6 Sudeste 16 Sudeste 0 917.1 -0.3 38
2018-09-03 05:00:00 24.4 9 Sudeste 13 Sudeste 0 917 -0.8 35
2018-09-03 04:00:00 25.5 7 Sudeste 21 Sur 0 917.3 -0.6 33
2018-09-03 03:00:00 25.5 8 Sudeste 15 Sur 0 917.4 -0.4 33
2018-09-03 02:00:00 25.6 3 Oeste 12 Sudeste 0 917.8 -0.1 37
2018-09-03 01:00:00 26.5 5 Norte 15 Sudeste 0 917.9 0.1 36
2018-09-03 00:00:00 28.8 11 Sudeste 24 Sudeste 0 917.8 0.3 27
2018-09-02 23:00:00 28.8 5 Sudeste 19 Sudeste 0 917.9 0.4 23
2018-09-02 22:00:00 29.1 11 Sudeste 17 Sudeste 0 917.8 0 22
2018-09-02 21:00:00 29.4 10 Sudeste 15 Sudeste 0 917.5 -0.5 21
2018-09-02 20:00:00 32.7 6 Sur 23 Sur 0 917.5 -0.9 17
2018-09-02 19:00:00 34.5 8 Sudoeste 22 Oeste 0 917.8 -1.2 14
2018-09-02 18:00:00 35 10 Sudoeste 26 Sudoeste 0 918 -1.5 14
2018-09-02 17:00:00 35.5 7 Oeste 27 Sudoeste 0 918.4 -1.8 13
2018-09-02 16:00:00 34.7 8 Sudoeste 27 Sudoeste 0 919 -1.5 14
2018-09-02 15:00:00 33.7 7 Sudoeste 28 Oeste 0 919.5 -1.5 17
2018-09-02 14:00:00 33 9 Sudoeste 25 Sudoeste 0 920.2 -0.7 16
2018-09-02 13:00:00 32.6 10 Oeste 22 Oeste 0 920.5 0.1 21
2018-09-02 12:00:00 31.1 4 Sudoeste 12 Oeste 0 921 0.4 27
2018-09-02 11:00:00 29.5 7 Oeste 13 Noroeste 0 920.9 1 31
2018-09-02 10:00:00 26.8 4 Oeste 7 Oeste 0 920.4 0.9 36
2018-09-02 09:00:00 23.7 0 Calma 13 Sudeste 0 920.6 0.9 41
2018-09-02 08:00:00 22.5 3 Sudeste 14 Sudeste 0 919.9 -0.1 42
2018-09-02 07:00:00 22.7 3 Sudeste 15 Sudeste 0 919.5 -0.8 41
2018-09-02 06:00:00 23.8 7 Sudeste 16 Sudeste 0 919.7 -0.7 39
2018-09-02 05:00:00 24.9 9 Sudeste 19 Sudeste 0 920 -0.7 34
2018-09-02 04:00:00 25.1 8 Sudeste 14 Sudeste 0 920.3 -0.3 38
2018-09-02 03:00:00 25.5 3 Sudoeste 19 Sudeste 0 920.4 0.2 41
2018-09-02 02:00:00 24.9 2 Norte 13 Sudeste 0 920.7 0.7 43
2018-09-02 01:00:00 26.1 7 Sudeste 20 Sudeste 0 920.6 0.9 41
2018-09-02 00:00:00 26.8 13 Sudeste 31 Sudeste 0 920.2 1.1 39
2018-09-01 23:00:00 26.9 15 Sudeste 29 Sudeste 0 920 1.2 40
2018-09-01 22:00:00 27.1 18 Sudeste 36 Sudeste 0 919.7 0.8 41
2018-09-01 21:00:00 28 17 Este 37 Este 0 919.1 0.1 39
2018-09-01 20:00:00 29.6 19 Este 36 Este 0 918.8 -0.3 34
2018-09-01 19:00:00 30.9 17 Sudeste 30 Sudeste 0 918.9 -0.7 28
2018-09-01 18:00:00 31.8 13 Este 32 Sudeste 0 919 -1.2 24
2018-09-01 17:00:00 34.4 6 Nordeste 28 Este 0 919.1 -1.4 17
2018-09-01 16:00:00 35.4 10 Oeste 21 Sudoeste 0 919.6 -1.5 15
2018-09-01 15:00:00 33.9 4 Sudoeste 18 Oeste 0 920.2 -1.3 16
2018-09-01 14:00:00 34.4 7 Norte 24 Oeste 0 920.5 -0.9 16
2018-09-01 13:00:00 32.9 6 Sudoeste 16 Sur 0 921.1 0 21
2018-09-01 12:00:00 31.3 4 Sudoeste 14 Oeste 0 921.5 0.6 30
2018-09-01 11:00:00 29.4 5 Oeste 12 Sudoeste 0 921.4 0.8 33
2018-09-01 10:00:00 27.4 2 Noroeste 6 Nordeste 0 921.1 0.7 37
2018-09-01 09:00:00 23.1 3 Este 12 Sudeste 0 920.9 0.8 45
2018-09-01 08:00:00 21.4 6 Sudeste 9 Sudeste 0 920.6 0.3 48
2018-09-01 07:00:00 22 2 Nordeste 10 Sudoeste 0 920.4 0 46
2018-09-01 06:00:00 23.2 2 Sudoeste 9 Sur 0 920.1 -0.5 42
2018-09-01 05:00:00 24.9 4 Este 20 Sudeste 0 920.3 -0.4 40
2018-09-01 04:00:00 24.7 8 Sudeste 21 Sudeste 0 920.4 -0.3 45
2018-09-01 03:00:00 24.7 3 Norte 30 Sudeste 0 920.6 -0.1 46
2018-09-01 02:00:00 25.3 12 Sudeste 26 Sudeste 0 920.7 0.1 45
2018-09-01 01:00:00 25.6 12 Este 20 Este 0 920.7 0.5 43
2018-09-01 00:00:00 25.5 8 Este 21 Sudeste 0 920.7 1.1 45
2018-08-31 23:00:00 26 10 Este 31 Este 0 920.6 1.5 45
2018-08-31 22:00:00 26.8 18 Este 34 Este 0 920.2 1.2 42
2018-08-31 21:00:00 27.5 15 Este 34 Sudeste 0 919.6 0.4 38
2018-08-31 20:00:00 29 13 Sudeste 31 Este 0 919.1 -0.4 33
2018-08-31 19:00:00 30.1 12 Este 24 Este 0 919 -1 29
2018-08-31 18:00:00 33.2 4 Noroeste 19 Noroeste 0 919.2 -1.3 16
2018-08-31 17:00:00 33.5 9 Noroeste 20 Noroeste 0 919.5 -1.6 17
2018-08-31 16:00:00 33.5 5 Oeste 21 Norte 0 920 -1.4 17
2018-08-31 15:00:00 33.6 10 Oeste 21 Noroeste 0 920.5 -1.3 15
2018-08-31 14:00:00 31.7 4 Este 14 Oeste 0 921.1 -0.7 22
2018-08-31 13:00:00 31 6 Noroeste 15 Oeste 0 921.4 -0.3 27
2018-08-31 12:00:00 29.1 4 Oeste 13 Oeste 0 921.8 0.4 34
2018-08-31 11:00:00 26.7 3 Sudoeste 10 Noroeste 0 921.8 0.8 47
2018-08-31 10:00:00 24.7 3 Noroeste 7 Oeste 0 921.7 1 52
2018-08-31 09:00:00 22.1 0 Calma 10 Sudeste 0 921.4 0.8 57
2018-08-31 08:00:00 20.2 5 Sudeste 9 Sudeste 0 921 0.3 61
2018-08-31 07:00:00 20.4 0 Calma 8 Sudeste 0 920.7 -0.1 61
2018-08-31 06:00:00 20.9 2 Noroeste 12 Sur 0 920.6 -0.6 61
2018-08-31 05:00:00 22.4 4 Sudeste 11 Sudeste 0 920.7 -0.7 57
2018-08-31 04:00:00 23.6 6 Sudeste 22 Este 0 920.8 -0.6 52
2018-08-31 03:00:00 23.3 4 Sur 14 Este 0 921.2 -0.4 53
2018-08-31 02:00:00 23.8 8 Nordeste 15 Este 0 921.4 0.1 52
2018-08-31 01:00:00 23.6 3 Norte 14 Este 0 921.4 0.8 54
2018-08-31 00:00:00 24.3 5 Este 36 Sudeste 0 921.6 1.4 53
2018-08-30 23:00:00 24.9 18 Sudeste 31 Este 0 921.3 1.4 53
2018-08-30 22:00:00 25.5 19 Sudeste 39 Sudeste 0 920.6 0.4 48
2018-08-30 21:00:00 26.4 17 Sudeste 37 Sudeste 0 920.2 0.3 43
2018-08-30 20:00:00 28 16 Sudeste 32 Este 0 919.9 -0.5 38
2018-08-30 19:00:00 29.1 15 Sudeste 27 Sudeste 0 920.2 -0.5 32
2018-08-30 18:00:00 30.6 13 Sudeste 33 Sur 0 919.9 -1.1 29
2018-08-30 17:00:00 30.3 13 Sudeste 36 Este 0 920.4 -1 29
2018-08-30 16:00:00 30.2 20 Este 36 Este 0 920.7 -1 30
2018-08-30 15:00:00 30 9 Este 25 Este 0 921 -1.2 28
2018-08-30 14:00:00 29.9 6 Nordeste 23 Este 0 921.4 -0.8 25
2018-08-30 13:00:00 29 9 Sudeste 25 Sur 0 921.7 -0.4 29
2018-08-30 12:00:00 27.8 13 Sudeste 24 Este 0 922.2 0.3 31
2018-08-30 11:00:00 26.9 8 Sudeste 19 Sudeste 0 922.2 0.6 30
2018-08-30 10:00:00 25.1 4 Este 19 Este 0 922.1 0.9 39
2018-08-30 09:00:00 22.2 8 Este 20 Este 0 921.9 0.8 52
2018-08-30 08:00:00 20.5 8 Sudeste 25 Este 0 921.6 0.8 59
2018-08-30 07:00:00 20.2 5 Sudeste 17 Este 0 921.2 0.4 56
2018-08-30 06:00:00 20.3 9 Sudeste 18 Sudeste 0 921.1 0.2 50
2018-08-30 05:00:00 21.2 6 Sudeste 21 Sudeste 0 920.8 0.2 46
2018-08-30 04:00:00 21.5 2 Noroeste 15 Sudoeste 0 920.8 -0.2 47
2018-08-30 03:00:00 22.8 0 Calma 28 Sudeste 0 920.9 0 44
2018-08-30 02:00:00 23.9 23 Sudeste 48 Sudeste 0 920.6 0 41
2018-08-30 01:00:00 23.4 25 Sudeste 49 Este 0 921 0.9 59
2018-08-30 00:00:00 24.8 15 Sudeste 35 Sudeste 0 920.9 1.6 54
2018-08-29 23:00:00 26.1 9 Sudeste 17 Sudeste 0 920.6 1.7 31
2018-08-29 22:00:00 26.6 11 Sudeste 20 Sudeste 0 920.1 1.5 13
2018-08-29 21:00:00 27 10 Sudeste 19 Oeste 0 919.3 0.6 17
2018-08-29 20:00:00 31 9 Sudoeste 24 Oeste 0 918.9 0 13
2018-08-29 19:00:00 32.7 9 Oeste 27 Sudoeste 0 918.6 -0.7 10
2018-08-29 18:00:00 32.8 14 Sudoeste 33 Sudoeste 0 918.7 -1.1 9
2018-08-29 17:00:00 32.6 14 Oeste 34 Sudoeste 0 918.9 -1.2 16
2018-08-29 16:00:00 32.6 15 Oeste 32 Oeste 0 919.3 -1.4 15
2018-08-29 15:00:00 31.6 15 Sudoeste 31 Oeste 0 919.8 -1.2 17
2018-08-29 14:00:00 31.4 7 Oeste 25 Oeste 0 920.1 -1.1 24
2018-08-29 13:00:00 29.5 13 Oeste 24 Oeste 0 920.7 -0.2 31
2018-08-29 12:00:00 28.3 7 Noroeste 15 Oeste 0 921 0 34
2018-08-29 11:00:00 26.4 4 Noroeste 13 Oeste 0 921.2 0.5 41
2018-08-29 10:00:00 24.9 4 Noroeste 49 Sudoeste 0 920.9 0.5 45
2018-08-29 09:00:00 21.8 0 Calma 12 Sudeste 0 921 0.6 54
2018-08-29 08:00:00 19.7 5 Sudeste 9 Sudeste 0 920.7 0.2 59
2018-08-29 07:00:00 20.4 0 Calma 6 Sudeste 0 920.4 -0.2 56
2018-08-29 06:00:00 21.4 2 Este 8 Oeste 0 920.4 0 53
2018-08-29 05:00:00 22.6 0 Calma 11 Sudoeste 0 920.5 0.4 49
2018-08-29 04:00:00 24.2 4 Sur 27 Sudoeste 0 920.6 0.8 42
2018-08-29 03:00:00 25.1 3 Este 35 Sudoeste 0 920.4 0.8 36
2018-08-29 02:00:00 25.8 8 Sur 35 Sudoeste 0 920.1 0.7 38
2018-08-29 01:00:00 26.6 9 Sur 19 Sur 0 919.8 0.8 30
2018-08-29 00:00:00 27 8 Sudeste 21 Sur 0 919.6 1 29
2018-08-28 23:00:00 27.5 7 Sur 30 Sudeste 0 919.4 1.4 28
2018-08-28 22:00:00 28.3 20 Sudeste 35 Sudeste 0 919 1.4 24
2018-08-28 21:00:00 29.2 23 Sudeste 48 Sudeste 0 918.6 0.4 23
2018-08-28 20:00:00 29 23 Este -- -- 0 918 -0.6 27
2018-08-28 19:00:00 34.8 9 Oeste 29 Oeste 0 917.6 -1.8 16
2018-08-28 18:00:00 34.6 17 Oeste 34 Sudoeste 0 918.2 -1.8 15
2018-08-28 17:00:00 35.1 13 Oeste 35 Sudoeste 0 918.6 -1.6 15
2018-08-28 16:00:00 35 13 Sudoeste 32 Oeste 0 919.4 -1.4 15
2018-08-28 15:00:00 34.8 10 Oeste 24 Oeste 0 920 -1.2 20
2018-08-28 14:00:00 33.7 10 Noroeste 23 Noroeste 0 920.2 -0.8 22
2018-08-28 13:00:00 32.2 6 Oeste 16 Oeste 0 920.8 0.2 26
2018-08-28 12:00:00 30.9 5 Sudoeste 15 Sudoeste 0 921.2 0.7 27
2018-08-28 11:00:00 28.5 5 Oeste 11 Oeste 0 921 0.8 29
2018-08-28 10:00:00 28.4 6 Noroeste 18 Noroeste 0 920.6 0.7 31
2018-08-28 09:00:00 24.4 9 Sudeste 14 Sudeste 0 920.5 0.8 43
2018-08-28 08:00:00 23.1 7 Sudeste 13 Sudeste 0 920.2 0.6 45
2018-08-28 07:00:00 23.5 9 Sudeste 16 Sudeste 0 919.9 0 44
2018-08-28 06:00:00 24.5 2 Este 12 Sudeste 0 919.7 -0.1 41
2018-08-28 05:00:00 25.9 4 Sur 21 Sur 0 919.6 0.2 39
2018-08-28 04:00:00 25.7 0 Calma 16 Este 0 919.9 0.8 40
2018-08-28 03:00:00 26.7 5 Este 36 Sudeste 0 919.8 0 39
2018-08-28 02:00:00 28.2 21 Sudeste 35 Sudeste 0 919.4 -1 32
2018-08-28 01:00:00 29 18 Sudeste 45 Sudeste 0 919.1 -0.7 30
2018-08-28 00:00:00 28.6 19 Sudeste 37 Sudeste 0 919.8 1.1 37
2018-08-27 23:00:00 29 8 Este 23 Sudeste 0 920.4 2.4 37
2018-08-27 22:00:00 29.3 5 Sudeste 22 Este 0 919.8 2.1 32
2018-08-27 21:00:00 30.4 7 Este 31 Este 0 918.7 0.9 31
2018-08-27 20:00:00 32.4 12 Sudeste 24 Este 0 918 -0.2 29
2018-08-27 19:00:00 36.6 6 Sur 26 Oeste 0 917.7 -0.8 10
2018-08-27 18:00:00 37.3 10 Oeste 30 Sudoeste 0 917.8 -1.1 10
2018-08-27 17:00:00 37 8 Sudoeste 27 Sudoeste 0 918.2 -1 10
2018-08-27 16:00:00 37.9 8 Oeste 28 Oeste 0 918.5 -0.7 10
2018-08-27 15:00:00 37 5 Oeste 23 Oeste 0 918.9 -0.2 11
2018-08-27 14:00:00 35 5 Noroeste 20 Este 0 919.2 0.3 12
2018-08-27 13:00:00 34 10 Sur 27 Este 0 919.2 0.4 12
2018-08-27 12:00:00 33 15 Sudeste 30 Sudeste 0 919.1 0.4 13
2018-08-27 11:00:00 32.5 9 Este 23 Este 0 918.9 0.1 14
2018-08-27 10:00:00 29.4 4 Noroeste 11 Noroeste 0 918.8 0.3 22
2018-08-27 09:00:00 25.4 3 Este 15 Sudeste 0 918.7 0.2 27
2018-08-27 08:00:00 21.8 11 Sudeste 19 Sudeste 0 918.8 0.1 32
2018-08-27 07:00:00 22 11 Sudeste 16 Este 0 918.5 -0.1 31
2018-08-27 06:00:00 22 12 Sudeste 18 Sudeste 0 918.5 -0.3 30
2018-08-27 05:00:00 22.4 5 Sudeste 10 Sudeste 0 918.7 -0.3 28
2018-08-27 04:00:00 23 6 Sudeste 15 Sudeste 0 918.6 -0.5 27
2018-08-27 03:00:00 22.8 6 Sudeste 18 Sudeste 0 918.8 -0.1 28
2018-08-27 02:00:00 23.6 6 Sudeste 16 Sudeste 0 919 0.1 27
2018-08-27 01:00:00 24.3 4 Este 16 Sudeste 0 919.1 0.7 23
2018-08-27 00:00:00 25.3 9 Sudeste 18 Sudeste 0 918.9 1.1 22
2018-08-26 23:00:00 25.3 12 Sudeste 18 Sudeste 0 918.9 1.5 21
2018-08-26 22:00:00 27 10 Sudeste 14 Sudeste 0 918.4 1.1 19
2018-08-26 21:00:00 29.8 5 Sur 17 Sudoeste 0 917.8 0.4 15
2018-08-26 20:00:00 32.5 7 Sudoeste 24 Sudoeste 0 917.4 -0.3 13
2018-08-26 19:00:00 33.8 6 Sudoeste 27 Sudoeste 0 917.3 -0.9 12
2018-08-26 18:00:00 33.9 13 Sudoeste 33 Sudoeste 0 917.4 -1.3 12
2018-08-26 17:00:00 33.9 14 Sudoeste 33 Sudoeste 0 917.7 -1.3 11
2018-08-26 16:00:00 33.5 11 Sur -- -- 0 918.2 -1.2 13
2018-08-26 15:00:00 32.9 12 Sudoeste 40 Sudoeste 0 918.7 -1 13
2018-08-26 14:00:00 32.4 10 Sudoeste 31 Sudoeste 0 919 -0.5 14
2018-08-26 13:00:00 31.8 11 Oeste 23 Oeste 0 919.4 0.3 20
2018-08-26 12:00:00 30.2 9 Oeste 20 Noroeste 0 919.7 1 24
2018-08-26 11:00:00 28.9 5 Noroeste 10 Oeste 0 919.5 1.2 25
2018-08-26 10:00:00 27.1 2 Norte 7 Noroeste 0 919.1 1.2 25
2018-08-26 09:00:00 23.3 2 Sur 8 Sudeste 0 918.7 0.9 32
2018-08-26 08:00:00 21 3 Sudeste 11 Sudeste 0 918.3 0.6 36
2018-08-26 07:00:00 21.2 2 Este 13 Sudeste 0 917.9 0.1 32
2018-08-26 06:00:00 21.5 2 Nordeste 9 Sudeste 0 917.8 -0.1 31
2018-08-26 05:00:00 21.5 3 Sudeste 9 Sudeste 0 917.7 -0.5 29
2018-08-26 04:00:00 22.7 5 Este 18 Sudeste 0 917.8 -0.4 22
2018-08-26 03:00:00 22.3 11 Sudeste 17 Sudeste 0 917.9 -0.1 23
2018-08-26 02:00:00 23.1 10 Sudeste 18 Sudeste 0 918.2 0.6 26
2018-08-26 01:00:00 23.9 11 Sudeste 17 Sudeste 0 918.2 1.2 27
2018-08-26 00:00:00 24.8 11 Sudeste 18 Sudeste 0 918 1.5 27
2018-08-25 23:00:00 26.7 7 Sudeste 13 Sudeste 0 917.6 1.3 25
2018-08-25 22:00:00 28.1 5 Sudeste 15 Sudeste 0 917 0.7 21
2018-08-25 21:00:00 28.2 10 Sudeste 15 Sudeste 0 916.5 -0.1 24
2018-08-25 20:00:00 31 5 Oeste -- -- 0 916.3 -0.6 18
2018-08-25 19:00:00 33.4 8 Noroeste 22 Noroeste 0 916.3 -1.2 15
2018-08-25 18:00:00 33.9 12 Noroeste 21 Oeste 0 916.6 -1.5 14
2018-08-25 17:00:00 31.9 4 Noroeste 32 Oeste 0 916.9 -1.7 17
2018-08-25 16:00:00 32.3 9 Oeste 26 Oeste 0 917.5 -1.8 17
2018-08-25 15:00:00 31.5 9 Sudoeste 28 Sudoeste 0 918.1 -1.6 19
2018-08-25 14:00:00 32.6 5 Sudoeste 24 Oeste 0 918.6 -1.2 15
2018-08-25 13:00:00 31 13 Oeste 22 Oeste 0 919.3 -0.4 23
2018-08-25 12:00:00 29.4 4 Sudoeste 14 Sur 0 919.7 0.1 26
2018-08-25 11:00:00 28.4 6 Sur 18 Sudeste 0 919.8 0.4 28
2018-08-25 10:00:00 24.8 2 Noroeste 8 Este 0 919.7 0.5 38
2018-08-25 09:00:00 22.9 6 Sudeste 15 Sudeste 0 919.6 0.5 43
2018-08-25 08:00:00 20.6 9 Sudeste 16 Sudeste 0 919.4 0.2 46
2018-08-25 07:00:00 20.8 9 Sudeste 14 Sudeste 0 919.2 -0.2 44
2018-08-25 06:00:00 22 9 Sudeste 14 Sudeste 0 919.1 -0.4 39
2018-08-25 05:00:00 22.6 7 Sudeste 15 Sudeste 0 919.2 -0.2 37
2018-08-25 04:00:00 22.9 7 Sudeste 12 Sudeste 0 919.4 -0.2 38
2018-08-25 03:00:00 24 7 Sudeste 13 Sudeste 0 919.5 -0.2 34
2018-08-25 02:00:00 25.4 5 Sudeste 17 Sudeste 0 919.4 -0.5 30
2018-08-25 01:00:00 25.3 10 Sudeste 17 Sudeste 0 919.6 -0.1 30
2018-08-25 00:00:00 25.4 9 Sudeste 15 Sudeste 0 919.7 0.4 31
2018-08-24 23:00:00 24.9 9 Sudeste 21 Sudeste 0 919.9 0.7 31
2018-08-24 22:00:00 25.3 11 Sudeste 19 Sudeste 0 919.7 0.3 31
2018-08-24 21:00:00 27.5 8 Sudeste 16 Sudoeste 0 919.3 -0.1 27
2018-08-24 20:00:00 30.8 6 Sur 26 Sudoeste 0 919.2 -0.7 21
2018-08-24 19:00:00 32.5 7 Sudoeste 31 Oeste 0 919.4 -1 18
2018-08-24 18:00:00 32.5 9 Sudoeste 23 Sudoeste 0 919.4 -1.7 18
2018-08-24 17:00:00 32.7 13 Oeste 26 Oeste 0 919.9 -1.8 18
2018-08-24 16:00:00 32.9 6 Sudoeste 21 Oeste 0 920.4 -1.6 19
2018-08-24 15:00:00 31.7 6 Sur 22 Sudoeste 0 921.1 -1.2 19
2018-08-24 14:00:00 31.3 10 Oeste 22 Oeste 0 921.7 -0.7 23
2018-08-24 13:00:00 30 4 Noroeste 17 Oeste 0 922 -0.1 28
2018-08-24 12:00:00 28.9 6 Sudoeste 16 Norte 0 922.3 0.4 30
2018-08-24 11:00:00 27.9 3 Sudoeste 9 Noroeste 0 922.4 1 30
2018-08-24 10:00:00 26 2 Noroeste 6 Noroeste 0 922.1 1 38
2018-08-24 09:00:00 22.3 3 Sudeste 11 Sudeste 0 921.9 0.9 47
2018-08-24 08:00:00 19.2 4 Sudeste 13 Sur 0 921.4 0.1 53
2018-08-24 07:00:00 18.6 9 Sudeste 14 Sudeste 0 921.1 -0.3 55
2018-08-24 06:00:00 18.7 8 Sudeste 11 Sudeste 0 921 -0.5 56
2018-08-24 05:00:00 18.9 3 Sur 19 Sudeste 0 921.3 -0.7 55
2018-08-24 04:00:00 19 5 Sudeste 15 Sudeste 0 921.4 -0.9 56
2018-08-24 03:00:00 19.1 12 Sudeste 18 Sudeste 0 921.5 -2 55
2018-08-24 02:00:00 19.2 10 Sudeste 19 Sur 0 922 -1.3 61
2018-08-24 01:00:00 20 11 Nordeste 28 Nordeste 0 922.3 0.5 60
2018-08-24 00:00:00 18.8 6 Este 29 Sudeste 0.2 923.5 2.5 72
2018-08-23 23:00:00 19.8 -- -- -- -- 1 923.3 3.3 67
2018-08-23 22:00:00 23.7 12 Este 26 Este 0 921.8 2 42
2018-08-23 21:00:00 23.7 13 Sudeste 23 Sudeste 0.2 921 1.6 42
2018-08-23 20:00:00 24.3 6 Este 32 Sudeste 0 920 0.7 41
2018-08-23 19:00:00 26.5 14 Sudeste 42 Este 0 919.8 -0.2 33
2018-08-23 18:00:00 29.4 19 Este 30 Este 0 919.4 -1.2 25
2018-08-23 17:00:00 34.3 11 Noroeste 31 Oeste 0 919.3 -1.8 17
2018-08-23 16:00:00 33.6 12 Noroeste 26 Oeste 0 920 -1.6 18
2018-08-23 15:00:00 32.5 10 Noroeste 28 Oeste 0 920.6 -1.3 20
2018-08-23 14:00:00 31 9 Oeste 21 Oeste 0 921.1 -0.7 21
2018-08-23 13:00:00 30.3 4 Norte 19 Oeste 0 921.6 0.1 24
2018-08-23 12:00:00 28.6 4 Sudoeste 16 Noroeste 0 921.9 0.6 28
2018-08-23 11:00:00 27.4 7 Oeste 15 Oeste 0 921.8 0.8 31
2018-08-23 10:00:00 25.8 3 Noroeste 12 Sudeste 0 921.5 1 36
2018-08-23 09:00:00 20.5 9 Sudeste 15 Sudeste 0 921.3 1 47
2018-08-23 08:00:00 19.3 4 Sur 19 Sudeste 0 921 0.7 51
2018-08-23 07:00:00 20.2 10 Sudeste 16 Sudeste 0 920.5 0.1 46
2018-08-23 06:00:00 20.1 8 Sudeste 19 Sudeste 0 920.3 -0.6 50
2018-08-23 05:00:00 20.5 2 Sudoeste 12 Este 0 920.3 -1.1 49
2018-08-23 04:00:00 20.9 3 Nordeste 16 Sudeste 0 920.4 -1.1 48
2018-08-23 03:00:00 20.8 0 Calma 13 Sudeste 0 920.9 -0.6 48
2018-08-23 02:00:00 20.6 6 Sudeste 15 Sudeste 0 921.4 0 49
2018-08-23 01:00:00 22.9 5 Oeste 35 Norte 0 921.5 0.5 42
2018-08-23 00:00:00 23.3 8 Nordeste 28 Nordeste 0 921.5 1.3 40